Open Full Screen Window  High Contrast Mode
June 30, 2015 5:19 PM EDT
Present Weather: Rain
Weather Information
Wind Direction
  ---
Wind Speed
  00 kt (0 mph)
Wind Gust
  00 kt (0 mph)
Altimeter
29.76 in
Visibility
7 SM
Temperature
20° C
68° F
Dewpoint
15° C
59° F
Humidity
73%
1hr Rain Fall
00.00 in.
24hr Rain Fall
00.00 in.
Sky Condition
Overcast @ 4,800 ft
Broken @ 2,900 ft
MVFR

METAR KIKW 302119Z AUTO 00000KT 7SM RA BKN029 OVC048 20/15 A2976 RMK AO2 T01980153

*Background is not an actual portrayal of the airport.